Time;durP1;ratioP1;P1;durP2;ratioP2;P2;SDS_P1;SDS_P2;PMS_P1;PMS_P2;Temp;Humidity;BMP_temperature;BMP_pressure;BME280_temperature;BME280_humidity;BME280_pressure;Samples;Min_cycle;Max_cycle;Signal;HPM_P1;HPM_P2
2022/03/05 00:00:10;;;;;;;10.83;5.97;;;3.00;99.90;;;;;;5037041;28;20486;-69
2022/03/05 00:02:37;;;;;;;10.57;6.50;;;2.90;99.90;;;;;;5035476;28;20440;-69
2022/03/05 00:05:04;;;;;;;10.30;6.83;;;2.90;99.90;;;;;;5036454;28;20460;-68
2022/03/05 00:07:32;;;;;;;10.53;6.80;;;2.80;99.90;;;;;;5036924;28;20751;-69
2022/03/05 00:09:59;;;;;;;11.80;8.13;;;2.80;99.90;;;;;;5037370;28;20831;-69
2022/03/05 00:12:26;;;;;;;13.13;6.90;;;2.80;99.90;;;;;;5036998;28;20452;-69
2022/03/05 00:14:54;;;;;;;14.97;6.70;;;2.70;99.90;;;;;;5037122;28;20460;-68
2022/03/05 00:17:22;;;;;;;11.83;6.97;;;2.60;99.90;;;;;;5037314;28;20460;-69
2022/03/05 00:19:48;;;;;;;13.63;7.60;;;2.70;99.90;;;;;;5036552;28;20525;-69
2022/03/05 00:22:15;;;;;;;9.63;6.70;;;2.60;99.90;;;;;;5036691;28;20625;-69
2022/03/05 00:24:42;;;;;;;12.53;6.13;;;2.50;99.90;;;;;;5036641;28;20459;-74
2022/03/05 00:27:10;;;;;;;11.90;6.50;;;2.50;99.90;;;;;;5037117;28;20467;-69
2022/03/05 00:29:37;;;;;;;11.20;6.13;;;2.50;99.90;;;;;;5036961;28;20778;-75
2022/03/05 00:32:04;;;;;;;20.20;11.33;;;2.40;99.90;;;;;;5035603;28;20926;-75
2022/03/05 00:34:32;;;;;;;12.67;7.47;;;2.30;99.90;;;;;;5038104;28;20459;-74
2022/03/05 00:36:59;;;;;;;9.60;6.80;;;2.30;99.90;;;;;;5041699;28;20475;-74
2022/03/05 00:39:26;;;;;;;12.10;6.83;;;2.30;99.90;;;;;;5037479;28;20467;-74
2022/03/05 00:41:53;;;;;;;13.00;6.23;;;2.30;99.90;;;;;;5036396;28;20506;-73
2022/03/05 00:44:19;;;;;;;9.77;7.43;;;2.30;99.90;;;;;;5036484;28;20495;-74
2022/03/05 00:46:46;;;;;;;14.83;7.37;;;2.20;99.90;;;;;;5036618;28;20460;-74
2022/03/05 00:49:13;;;;;;;14.23;7.40;;;2.20;99.90;;;;;;5036669;28;20463;-74
2022/03/05 00:51:41;;;;;;;9.03;6.47;;;2.20;99.90;;;;;;5036551;28;20496;-73
2022/03/05 00:54:08;;;;;;;9.27;6.93;;;2.20;99.90;;;;;;5036558;28;20845;-73
2022/03/05 00:56:35;;;;;;;12.73;7.50;;;2.10;99.90;;;;;;5036552;28;20460;-78
2022/03/05 00:59:01;;;;;;;14.60;7.13;;;2.10;99.90;;;;;;5037691;28;20468;-74
2022/03/05 01:01:28;;;;;;;10.87;6.90;;;2.10;99.90;;;;;;5037805;28;20487;-73
2022/03/05 01:03:55;;;;;;;9.20;6.57;;;2.10;99.90;;;;;;5038771;28;20940;-73
2022/03/05 01:06:21;;;;;;;13.97;7.33;;;2.00;99.90;;;;;;5039492;28;20474;-73
2022/03/05 01:08:50;;;;;;;12.30;7.20;;;2.00;99.90;;;;;;5036466;28;20529;-74
2022/03/05 01:11:16;;;;;;;12.37;6.80;;;1.90;99.90;;;;;;5036137;28;20916;-73
2022/03/05 01:13:43;;;;;;;10.77;6.47;;;1.90;99.90;;;;;;5035496;28;20943;-74
2022/03/05 01:16:10;;;;;;;12.33;7.37;;;2.00;99.90;;;;;;5036028;28;20819;-75
2022/03/05 01:18:37;;;;;;;9.07;6.30;;;1.90;99.90;;;;;;5035945;28;20463;-73
2022/03/05 01:21:04;;;;;;;11.70;7.00;;;1.90;99.90;;;;;;5036249;28;20479;-73
2022/03/05 01:23:30;;;;;;;13.50;6.70;;;1.90;99.90;;;;;;5035888;28;20889;-74
2022/03/05 01:25:58;;;;;;;15.10;7.53;;;1.90;99.90;;;;;;5036519;28;20525;-73
2022/03/05 01:28:25;;;;;;;15.93;7.30;;;1.90;99.90;;;;;;5037120;28;20781;-74
2022/03/05 01:30:52;;;;;;;13.47;7.00;;;1.90;99.90;;;;;;5036583;28;20507;-74
2022/03/05 01:33:18;;;;;;;14.87;7.77;;;1.90;99.90;;;;;;5036777;28;20452;-72
2022/03/05 01:35:48;;;;;;;18.27;8.00;;;1.90;99.90;;;;;;5038691;28;20774;-72
2022/03/05 01:38:15;;;;;;;13.23;7.13;;;1.90;99.90;;;;;;5039435;28;20839;-73
2022/03/05 01:40:42;;;;;;;16.93;7.07;;;1.80;99.90;;;;;;5038717;28;20456;-73
2022/03/05 01:43:11;;;;;;;11.20;7.07;;;1.80;99.90;;;;;;5038900;28;20479;-74
2022/03/05 01:45:38;;;;;;;11.10;7.23;;;1.80;99.90;;;;;;5038007;28;20463;-74
2022/03/05 01:48:06;;;;;;;10.70;7.60;;;1.80;99.90;;;;;;5040168;28;20808;-73
2022/03/05 01:50:33;;;;;;;15.03;8.07;;;1.80;99.90;;;;;;5039164;28;20456;-71
2022/03/05 01:53:00;;;;;;;14.60;7.93;;;1.80;99.90;;;;;;5039407;28;20462;-72
2022/03/05 01:55:28;;;;;;;10.33;7.23;;;1.80;99.90;;;;;;5038154;28;20459;-73
2022/03/05 01:57:55;;;;;;;11.17;6.60;;;1.80;99.90;;;;;;5036806;28;20487;-73
2022/03/05 02:00:23;;;;;;;13.73;6.73;;;1.80;99.90;;;;;;5037529;28;20525;-72
2022/03/05 02:02:50;;;;;;;18.20;6.93;;;1.80;99.90;;;;;;5036475;28;20529;-73
2022/03/05 02:05:18;;;;;;;8.53;6.90;;;1.70;99.90;;;;;;5036678;28;20467;-73
2022/03/05 02:07:46;;;;;;;10.90;7.23;;;1.70;99.90;;;;;;5036503;28;20509;-72
2022/03/05 02:10:13;;;;;;;10.33;6.77;;;1.70;99.90;;;;;;5037227;28;20452;-73
2022/03/05 02:12:40;;;;;;;10.27;7.37;;;1.70;99.90;;;;;;5037778;28;20452;-73
2022/03/05 02:15:08;;;;;;;17.70;8.10;;;1.70;99.90;;;;;;5038001;28;20460;-72
2022/03/05 02:17:37;;;;;;;15.13;8.27;;;1.70;99.90;;;;;;5037198;28;20754;-72
2022/03/05 02:20:05;;;;;;;11.53;7.07;;;1.60;99.90;;;;;;5036508;28;20539;-71
2022/03/05 02:22:33;;;;;;;24.73;7.70;;;1.60;99.90;;;;;;5035977;28;20514;-71
2022/03/05 02:25:02;;;;;;;10.30;6.60;;;1.60;99.90;;;;;;5036244;28;20467;-72
2022/03/05 02:27:30;;;;;;;12.10;7.63;;;1.60;99.90;;;;;;5040268;28;20487;-72
2022/03/05 02:29:58;;;;;;;9.57;6.50;;;1.60;99.90;;;;;;5040546;28;20464;-72
2022/03/05 02:32:25;;;;;;;14.40;7.80;;;1.60;99.90;;;;;;5043017;28;20451;-72
2022/03/05 02:34:52;;;;;;;10.63;7.07;;;1.50;99.90;;;;;;5044861;28;20464;-73
2022/03/05 02:37:19;;;;;;;11.30;7.90;;;1.50;99.90;;;;;;5047898;28;20824;-72
2022/03/05 02:39:47;;;;;;;11.30;8.13;;;1.50;99.90;;;;;;5045421;28;20518;-72
2022/03/05 02:42:15;;;;;;;19.87;8.27;;;1.50;99.90;;;;;;5040202;28;20541;-72
2022/03/05 02:44:42;;;;;;;10.33;7.97;;;1.50;99.90;;;;;;5039561;28;20562;-73
2022/03/05 02:47:09;;;;;;;17.90;8.00;;;1.50;99.90;;;;;;5038799;28;20470;-70
2022/03/05 02:49:36;;;;;;;17.23;8.80;;;1.50;99.90;;;;;;5039733;28;20526;-71
2022/03/05 02:52:04;;;;;;;15.37;8.30;;;1.40;99.90;;;;;;5038649;28;20456;-72
2022/03/05 02:54:30;;;;;;;12.43;8.40;;;1.40;99.90;;;;;;5038663;28;20464;-72
2022/03/05 02:56:58;;;;;;;12.13;8.17;;;1.40;99.90;;;;;;5038559;28;20529;-72
2022/03/05 02:59:28;;;;;;;14.90;7.70;;;1.40;99.90;;;;;;5038905;28;20467;-72
2022/03/05 03:01:55;;;;;;;11.17;7.47;;;1.30;99.90;;;;;;5039117;28;20561;-72
2022/03/05 03:04:22;;;;;;;16.70;8.00;;;1.30;99.90;;;;;;5038709;28;20536;-72
2022/03/05 03:06:50;;;;;;;12.37;8.00;;;1.30;99.90;;;;;;5038823;28;20456;-72
2022/03/05 03:09:17;;;;;;;15.70;7.40;;;1.20;99.90;;;;;;5039292;28;20533;-73
2022/03/05 03:11:43;;;;;;;8.20;7.10;;;1.20;99.90;;;;;;5040166;28;20456;-71
2022/03/05 03:14:11;;;;;;;15.70;8.57;;;1.20;99.90;;;;;;5040228;28;20456;-73
2022/03/05 03:16:38;;;;;;;9.50;7.93;;;1.20;99.90;;;;;;5040043;28;20748;-72
2022/03/05 03:19:05;;;;;;;14.23;7.63;;;1.20;99.90;;;;;;5040381;28;20467;-72
2022/03/05 03:21:31;;;;;;;10.20;7.80;;;1.20;99.90;;;;;;5039553;28;20537;-72
2022/03/05 03:23:58;;;;;;;13.10;8.23;;;1.20;99.90;;;;;;5040430;28;20459;-71
2022/03/05 03:26:25;;;;;;;15.23;7.47;;;1.10;99.90;;;;;;5040042;28;20562;-73
2022/03/05 03:28:52;;;;;;;13.40;8.40;;;1.10;99.90;;;;;;5039625;28;20785;-71
2022/03/05 03:31:21;;;;;;;11.17;7.93;;;1.10;99.90;;;;;;5039592;28;20463;-72
2022/03/05 03:33:47;;;;;;;9.90;7.87;;;1.10;99.90;;;;;;5039705;28;20807;-71
2022/03/05 03:36:14;;;;;;;17.57;8.47;;;1.10;99.90;;;;;;5038888;28;20471;-71
2022/03/05 03:38:41;;;;;;;9.83;7.40;;;1.10;99.90;;;;;;5040589;28;20456;-71
2022/03/05 03:41:08;;;;;;;12.63;8.13;;;1.10;99.90;;;;;;5040766;28;20456;-73
2022/03/05 03:43:34;;;;;;;10.30;7.67;;;1.00;99.90;;;;;;5042696;28;20542;-72
2022/03/05 03:46:01;;;;;;;11.30;8.37;;;1.10;99.90;;;;;;5042810;28;20488;-71
2022/03/05 03:48:29;;;;;;;11.83;8.10;;;1.10;99.90;;;;;;5040395;28;20456;-73
2022/03/05 03:50:56;;;;;;;9.50;7.97;;;1.10;99.90;;;;;;5039270;28;20925;-72
2022/03/05 03:53:23;;;;;;;13.63;8.30;;;1.10;99.90;;;;;;5039325;28;20456;-72
2022/03/05 03:55:50;;;;;;;13.77;8.50;;;1.10;99.90;;;;;;5038158;28;20460;-71
2022/03/05 03:58:17;;;;;;;11.07;8.23;;;1.00;99.90;;;;;;5038350;28;20459;-72
2022/03/05 04:00:45;;;;;;;9.73;7.30;;;1.00;99.90;;;;;;5038224;28;20513;-72
2022/03/05 04:03:12;;;;;;;11.23;8.17;;;1.00;99.90;;;;;;5038222;28;20510;-71
2022/03/05 04:05:40;;;;;;;15.50;8.47;;;1.00;99.90;;;;;;5040699;28;20470;-73
2022/03/05 04:10:52;;;;;;;11.20;8.23;;;1.00;99.90;;;;;;5038690;28;20423;-70
2022/03/05 04:13:18;;;;;;;14.07;8.90;;;1.00;99.90;;;;;;5037236;28;20518;-70
2022/03/05 04:15:46;;;;;;;16.10;8.80;;;1.00;99.90;;;;;;5036997;28;20464;-70
2022/03/05 04:18:13;;;;;;;16.33;9.03;;;0.90;99.90;;;;;;5036727;28;20486;-70
2022/03/05 04:20:41;;;;;;;10.63;7.90;;;0.90;99.90;;;;;;5037038;28;20456;-69
2022/03/05 04:23:08;;;;;;;12.20;8.00;;;0.90;99.90;;;;;;5036777;28;20480;-69
2022/03/05 04:25:34;;;;;;;11.57;8.53;;;0.90;99.90;;;;;;5036911;28;20795;-68
2022/03/05 04:28:01;;;;;;;18.30;9.53;;;0.90;99.90;;;;;;5036967;28;20509;-68
2022/03/05 04:30:28;;;;;;;12.97;8.43;;;0.90;99.90;;;;;;5037813;28;20841;-68
2022/03/05 04:32:54;;;;;;;13.57;9.23;;;0.90;99.90;;;;;;5038260;28;20463;-70
2022/03/05 04:35:21;;;;;;;17.63;9.27;;;0.80;99.90;;;;;;5039532;28;20456;-68
2022/03/05 04:37:51;;;;;;;14.77;9.23;;;0.80;99.90;;;;;;5037161;28;20967;-67
2022/03/05 04:40:18;;;;;;;13.50;9.73;;;0.80;99.90;;;;;;5036333;28;20526;-68
2022/03/05 04:42:44;;;;;;;14.43;9.43;;;0.80;99.90;;;;;;5036253;28;20488;-69
2022/03/05 04:45:12;;;;;;;13.20;8.60;;;0.80;99.90;;;;;;5036072;28;20460;-68
2022/03/05 04:47:40;;;;;;;20.40;9.63;;;0.80;99.90;;;;;;5035820;28;20471;-68
2022/03/05 04:50:08;;;;;;;14.13;9.50;;;0.80;99.90;;;;;;5035849;28;20480;-68
2022/03/05 04:52:35;;;;;;;14.13;8.57;;;0.80;99.90;;;;;;5035842;28;20912;-68
2022/03/05 04:55:04;;;;;;;14.97;8.63;;;0.80;99.90;;;;;;5036061;28;20470;-68
2022/03/05 04:57:31;;;;;;;11.53;9.43;;;0.80;99.90;;;;;;5035769;28;20460;-67
2022/03/05 04:59:57;;;;;;;14.20;9.10;;;0.80;99.90;;;;;;5035961;28;20459;-68
2022/03/05 05:02:24;;;;;;;18.53;11.63;;;0.80;99.90;;;;;;5036062;28;20491;-68
2022/03/05 05:04:51;;;;;;;20.33;11.60;;;0.80;99.90;;;;;;5036143;28;20463;-68
2022/03/05 05:07:18;;;;;;;13.33;9.53;;;0.80;99.90;;;;;;5036063;28;20475;-68
2022/03/05 05:09:44;;;;;;;9.53;8.03;;;0.80;99.90;;;;;;5036257;28;20471;-68
2022/03/05 05:12:12;;;;;;;15.43;9.20;;;0.80;99.90;;;;;;5035790;28;20460;-68
2022/03/05 05:14:39;;;;;;;13.40;9.10;;;0.70;99.90;;;;;;5035641;28;20521;-68
2022/03/05 05:17:06;;;;;;;13.97;9.83;;;0.70;99.90;;;;;;5035306;28;20590;-67
2022/03/05 05:19:33;;;;;;;13.97;9.23;;;0.70;99.90;;;;;;5035898;28;20845;-68
2022/03/05 05:22:03;;;;;;;15.63;9.97;;;0.70;99.90;;;;;;5035438;28;20824;-68
2022/03/05 05:24:31;;;;;;;17.43;8.90;;;0.70;99.90;;;;;;5035482;28;20541;-68
2022/03/05 05:26:59;;;;;;;15.97;9.20;;;0.70;99.90;;;;;;5035359;28;20939;-67
2022/03/05 05:29:27;;;;;;;12.23;9.20;;;0.70;99.90;;;;;;5035529;28;20790;-68
2022/03/05 05:31:55;;;;;;;13.23;9.23;;;0.70;99.90;;;;;;5035108;28;20937;-67
2022/03/05 05:34:22;;;;;;;13.07;9.03;;;0.70;99.90;;;;;;5035352;28;20566;-68
2022/03/05 05:36:49;;;;;;;16.03;9.40;;;0.70;99.90;;;;;;5035036;28;20456;-68
2022/03/05 05:39:16;;;;;;;18.67;9.70;;;0.70;99.90;;;;;;5035066;28;20939;-67
2022/03/05 05:41:43;;;;;;;13.73;9.50;;;0.70;99.90;;;;;;5035015;28;20793;-68
2022/03/05 05:44:11;;;;;;;21.67;10.50;;;0.70;99.90;;;;;;5035170;28;20503;-68
2022/03/05 05:46:40;;;;;;;15.03;10.30;;;0.70;99.90;;;;;;5034919;28;20466;-69
2022/03/05 05:49:07;;;;;;;18.33;10.00;;;0.70;99.90;;;;;;5034960;28;20547;-68
2022/03/05 05:51:33;;;;;;;29.07;17.00;;;0.70;99.90;;;;;;5035231;28;20459;-68
2022/03/05 05:54:00;;;;;;;24.40;14.03;;;0.60;99.90;;;;;;5034914;28;20452;-68
2022/03/05 05:56:27;;;;;;;20.17;9.67;;;0.60;99.90;;;;;;5035230;28;20547;-68
2022/03/05 05:58:54;;;;;;;15.13;10.10;;;0.60;99.90;;;;;;5034870;28;20470;-67
2022/03/05 06:01:21;;;;;;;14.70;9.90;;;0.60;99.90;;;;;;5034060;28;20456;-68
2022/03/05 06:03:50;;;;;;;14.30;10.10;;;0.60;99.90;;;;;;5035040;28;20562;-68
2022/03/05 06:06:17;;;;;;;18.27;10.20;;;0.60;99.90;;;;;;5034842;28;20456;-68
2022/03/05 06:08:44;;;;;;;22.10;11.33;;;0.60;99.90;;;;;;5034760;28;20546;-68
2022/03/05 06:11:10;;;;;;;17.50;10.23;;;0.60;99.90;;;;;;5035010;28;20466;-68
2022/03/05 06:13:37;;;;;;;14.10;10.77;;;0.60;99.90;;;;;;5036091;28;20456;-68
2022/03/05 06:16:05;;;;;;;14.53;10.43;;;0.60;99.90;;;;;;5038016;28;20460;-68
2022/03/05 06:18:32;;;;;;;17.43;9.60;;;0.70;99.90;;;;;;5036954;28;20514;-68
2022/03/05 06:21:02;;;;;;;17.70;10.77;;;0.60;99.90;;;;;;5034810;28;20471;-68
2022/03/05 06:23:30;;;;;;;13.23;11.37;;;0.60;99.90;;;;;;5034768;28;20813;-68
2022/03/05 06:25:56;;;;;;;14.83;10.40;;;0.70;99.90;;;;;;5034665;28;20793;-68
2022/03/05 06:28:23;;;;;;;15.20;10.27;;;0.70;99.90;;;;;;5034418;28;20456;-68
2022/03/05 06:30:50;;;;;;;17.30;11.33;;;0.70;99.90;;;;;;5034507;28;20583;-68
2022/03/05 06:33:17;;;;;;;18.60;10.07;;;0.70;99.90;;;;;;5034609;28;20833;-68
2022/03/05 06:35:43;;;;;;;14.20;10.03;;;0.80;99.90;;;;;;5034518;28;20456;-67
2022/03/05 06:38:11;;;;;;;16.80;10.90;;;0.80;99.90;;;;;;5034734;28;20467;-68
2022/03/05 06:40:38;;;;;;;15.50;10.47;;;0.80;99.90;;;;;;5034406;28;20920;-67
2022/03/05 06:43:07;;;;;;;19.33;9.80;;;0.80;99.90;;;;;;5034594;28;20492;-67
2022/03/05 06:45:34;;;;;;;15.63;9.90;;;0.80;99.90;;;;;;5034822;28;20460;-70
2022/03/05 06:48:01;;;;;;;16.00;10.00;;;0.80;99.90;;;;;;5034776;28;20491;-68
2022/03/05 06:50:28;;;;;;;18.20;10.60;;;0.90;99.90;;;;;;5034536;28;20464;-69
2022/03/05 06:52:54;;;;;;;18.17;10.83;;;0.90;99.90;;;;;;5034528;28;20514;-68
2022/03/05 06:55:23;;;;;;;20.13;10.80;;;0.90;99.90;;;;;;5034385;28;20460;-67
2022/03/05 06:57:51;;;;;;;19.73;10.30;;;0.90;99.90;;;;;;5034498;28;20563;-67
2022/03/05 07:00:20;;;;;;;24.10;16.20;;;1.00;99.90;;;;;;5034402;28;20452;-69
2022/03/05 07:02:47;;;;;;;19.20;10.77;;;1.00;99.90;;;;;;5034504;28;20917;-72
2022/03/05 07:05:14;;;;;;;17.67;9.63;;;1.00;99.90;;;;;;5034637;28;20463;-70
2022/03/05 07:07:41;;;;;;;15.10;10.83;;;1.00;99.90;;;;;;5034222;28;20459;-71
2022/03/05 07:10:09;;;;;;;18.53;11.10;;;1.10;99.90;;;;;;5034810;28;20456;-70
2022/03/05 07:12:37;;;;;;;15.40;10.53;;;1.10;99.90;;;;;;5037370;28;20452;-70
2022/03/05 07:15:05;;;;;;;14.13;10.50;;;1.20;99.90;;;;;;5038118;28;20460;-70
2022/03/05 07:17:32;;;;;;;16.70;10.20;;;1.20;99.90;;;;;;5037881;28;20471;-70
2022/03/05 07:19:58;;;;;;;15.20;11.60;;;1.30;99.90;;;;;;5038085;28;20570;-70
2022/03/05 07:22:25;;;;;;;17.73;12.23;;;1.30;99.90;;;;;;5037941;28;20466;-70
2022/03/05 07:24:52;;;;;;;18.27;10.33;;;1.30;99.90;;;;;;5038678;28;20917;-70
2022/03/05 07:27:19;;;;;;;17.50;10.27;;;1.30;99.90;;;;;;5038797;28;20610;-70
2022/03/05 07:29:47;;;;;;;14.70;10.10;;;1.40;99.90;;;;;;5039041;28;20455;-70
2022/03/05 07:32:14;;;;;;;16.87;10.60;;;1.50;99.90;;;;;;5038509;28;20467;-71
2022/03/05 07:34:40;;;;;;;15.10;10.67;;;1.50;99.90;;;;;;5037465;28;20486;-70
2022/03/05 07:37:07;;;;;;;16.23;9.80;;;1.60;99.90;;;;;;5037608;28;20484;-70
2022/03/05 07:39:34;;;;;;;13.90;10.20;;;1.60;99.90;;;;;;5038150;28;20471;-71
2022/03/05 07:42:00;;;;;;;18.40;10.87;;;1.70;99.90;;;;;;5038121;28;20486;-71
2022/03/05 07:44:27;;;;;;;14.93;9.60;;;1.70;99.90;;;;;;5038749;28;20479;-70
2022/03/05 07:46:55;;;;;;;13.93;9.17;;;1.80;99.90;;;;;;5038677;28;20490;-72
2022/03/05 07:49:22;;;;;;;18.10;11.40;;;1.80;99.90;;;;;;5039550;28;20452;-70
2022/03/05 07:51:48;;;;;;;16.63;10.77;;;1.80;99.90;;;;;;5038064;28;20459;-70
2022/03/05 07:54:15;;;;;;;18.27;10.73;;;1.90;99.90;;;;;;5037934;28;20853;-70
2022/03/05 07:56:42;;;;;;;16.73;9.90;;;1.90;99.90;;;;;;5037520;28;20551;-70
2022/03/05 07:59:08;;;;;;;12.13;10.33;;;1.90;99.90;;;;;;5037161;28;20468;-70
2022/03/05 08:01:35;;;;;;;20.13;12.60;;;2.00;99.90;;;;;;5037277;28;20452;-73
2022/03/05 08:04:03;;;;;;;22.93;11.00;;;2.10;99.90;;;;;;5037193;28;20487;-70
2022/03/05 08:06:30;;;;;;;14.80;10.10;;;2.10;99.90;;;;;;5038149;28;20555;-70
2022/03/05 08:08:58;;;;;;;14.43;10.30;;;2.10;99.90;;;;;;5038944;28;20948;-70
2022/03/05 08:11:25;;;;;;;14.07;9.93;;;2.20;99.90;;;;;;5038974;28;20460;-70
2022/03/05 08:13:52;;;;;;;14.30;10.10;;;2.30;99.90;;;;;;5037867;28;20456;-70
2022/03/05 08:16:18;;;;;;;17.30;10.10;;;2.30;99.90;;;;;;5037891;28;20460;-70
2022/03/05 08:18:45;;;;;;;12.97;9.10;;;2.40;99.90;;;;;;5040438;28;20463;-71
2022/03/05 08:21:13;;;;;;;16.57;10.83;;;2.40;99.90;;;;;;5044108;28;20920;-72
2022/03/05 08:23:40;;;;;;;15.07;11.10;;;2.40;99.90;;;;;;5036570;28;20476;-71
2022/03/05 08:26:10;;;;;;;13.60;9.40;;;2.50;99.90;;;;;;5036734;28;20459;-71
2022/03/05 08:28:37;;;;;;;19.13;10.83;;;2.50;99.90;;;;;;5040633;28;20502;-69
2022/03/05 08:31:04;;;;;;;14.27;10.70;;;2.60;99.90;;;;;;5039843;28;20456;-67
2022/03/05 08:33:31;;;;;;;44.17;27.27;;;2.70;99.90;;;;;;5039195;28;20479;-71
2022/03/05 08:35:58;;;;;;;17.40;11.50;;;2.80;99.90;;;;;;5036663;28;20462;-70
2022/03/05 08:38:26;;;;;;;15.30;9.53;;;2.80;99.90;;;;;;5037071;28;20994;-70
2022/03/05 08:40:52;;;;;;;14.90;10.13;;;2.80;99.90;;;;;;5041026;28;20460;-71
2022/03/05 08:43:19;;;;;;;14.17;10.60;;;2.90;99.90;;;;;;5042824;28;20492;-70
2022/03/05 08:45:46;;;;;;;13.90;9.53;;;3.00;99.90;;;;;;5041844;28;20466;-67
2022/03/05 08:48:14;;;;;;;13.90;9.47;;;3.00;99.90;;;;;;5037672;28;20463;-68
2022/03/05 08:50:41;;;;;;;13.50;10.17;;;3.10;99.90;;;;;;5035746;28;20498;-68
2022/03/05 08:53:09;;;;;;;12.03;9.43;;;3.10;99.90;;;;;;5035699;28;20460;-68
2022/03/05 08:55:37;;;;;;;17.27;10.93;;;3.20;99.90;;;;;;5036102;28;20486;-67
2022/03/05 08:58:04;;;;;;;14.33;9.60;;;3.30;99.90;;;;;;5035977;28;20464;-67
2022/03/05 09:00:31;;;;;;;32.27;19.53;;;3.40;99.90;;;;;;5035497;28;21002;-68
2022/03/05 09:02:57;;;;;;;16.27;10.33;;;3.50;99.90;;;;;;5035779;28;20463;-67
2022/03/05 09:05:24;;;;;;;13.53;10.03;;;3.50;99.90;;;;;;5036275;28;20518;-68
2022/03/05 09:07:51;;;;;;;12.97;9.93;;;3.60;99.90;;;;;;5035652;28;20551;-67
2022/03/05 09:10:18;;;;;;;13.33;9.20;;;3.70;99.90;;;;;;5035594;28;20464;-68
2022/03/05 09:12:46;;;;;;;13.37;8.70;;;3.70;99.90;;;;;;5035842;28;20460;-68
2022/03/05 09:15:13;;;;;;;12.13;9.13;;;3.80;99.90;;;;;;5035819;28;20508;-68
2022/03/05 09:17:40;;;;;;;22.67;9.40;;;3.90;99.90;;;;;;5035473;28;20539;-67
2022/03/05 09:20:08;;;;;;;14.80;10.10;;;4.00;99.90;;;;;;5035078;28;20460;-68
2022/03/05 09:22:35;;;;;;;15.37;11.40;;;4.00;99.90;;;;;;5035318;28;20464;-67
2022/03/05 09:25:02;;;;;;;12.23;9.10;;;4.00;99.90;;;;;;5035308;28;20480;-68
2022/03/05 09:27:29;;;;;;;11.90;8.97;;;4.00;99.90;;;;;;5035266;28;20812;-68
2022/03/05 09:29:58;;;;;;;11.87;9.30;;;4.10;99.90;;;;;;5034987;28;20455;-67
2022/03/05 09:32:25;;;;;;;10.70;8.30;;;4.10;99.90;;;;;;5035014;28;20464;-67
2022/03/05 09:34:51;;;;;;;15.57;9.40;;;4.10;99.90;;;;;;5035826;28;20452;-68
2022/03/05 09:37:18;;;;;;;11.77;9.60;;;4.20;99.90;;;;;;5035204;28;20456;-68
2022/03/05 09:39:47;;;;;;;12.83;9.67;;;4.20;99.90;;;;;;5034723;28;20932;-68
2022/03/05 09:42:14;;;;;;;16.83;9.17;;;4.30;99.90;;;;;;5034775;28;20538;-67
2022/03/05 09:44:40;;;;;;;13.37;9.73;;;4.40;99.90;;;;;;5035360;28;20827;-68
2022/03/05 09:47:10;;;;;;;20.17;12.20;;;4.40;99.90;;;;;;5034721;28;20460;-68
2022/03/05 09:49:39;;;;;;;14.50;10.33;;;4.50;99.90;;;;;;5034159;28;20518;-68
2022/03/05 09:52:06;;;;;;;16.10;9.73;;;4.60;99.90;;;;;;5035041;28;20460;-68
2022/03/05 09:54:33;;;;;;;13.37;9.63;;;4.70;99.90;;;;;;5035038;28;20452;-69
2022/03/05 09:57:00;;;;;;;13.30;8.90;;;4.70;99.90;;;;;;5034701;28;20466;-68
2022/03/05 09:59:26;;;;;;;12.27;9.27;;;4.80;99.90;;;;;;5035015;28;20955;-67
2022/03/05 10:01:54;;;;;;;10.07;8.57;;;4.90;99.90;;;;;;5034846;28;20511;-67
2022/03/05 10:04:25;;;;;;;12.47;9.07;;;4.90;99.90;;;;;;5034509;28;20810;-68
2022/03/05 10:07:15;;;;;;;16.47;9.50;;;5.00;99.90;;;;;;5035825;28;20928;-72
2022/03/05 10:09:43;;;;;;;10.50;8.50;;;5.00;99.90;;;;;;5035118;28;20514;-68
2022/03/05 10:12:30;;;;;;;12.70;8.97;;;5.10;99.90;;;;;;5034623;28;20459;-69
2022/03/05 10:15:09;;;;;;;10.10;8.60;;;5.10;99.90;;;;;;5034693;28;20440;-67
2022/03/05 10:17:51;;;;;;;15.67;9.13;;;5.20;99.90;;;;;;5034429;28;20769;-69
2022/03/05 10:20:20;;;;;;;11.83;8.50;;;5.20;99.90;;;;;;5034592;28;20510;-70
2022/03/05 10:22:56;;;;;;;15.50;10.40;;;5.30;99.90;;;;;;5034229;28;20456;-71
2022/03/05 10:25:31;;;;;;;9.87;8.37;;;5.40;99.90;;;;;;5034883;28;20537;-70
2022/03/05 10:28:02;;;;;;;11.03;8.10;;;5.40;99.90;;;;;;5034847;28;20444;-68
2022/03/05 10:30:29;;;;;;;9.37;7.00;;;5.40;99.90;;;;;;5036900;28;20468;-68
2022/03/05 10:32:56;;;;;;;12.20;7.80;;;5.30;99.90;;;;;;5036377;28;20484;-70
2022/03/05 10:35:24;;;;;;;11.70;8.80;;;5.30;99.90;;;;;;5034837;28;20460;-69
2022/03/05 10:37:52;;;;;;;10.13;7.67;;;5.40;99.90;;;;;;5034760;28;20464;-70
2022/03/05 10:40:26;;;;;;;14.93;8.40;;;5.60;99.90;;;;;;5034319;28;20464;-70
2022/03/05 10:42:53;;;;;;;13.97;9.30;;;5.60;99.90;;;;;;5034185;28;20487;-70
2022/03/05 10:45:20;;;;;;;12.17;8.53;;;5.70;99.90;;;;;;5034899;28;20550;-70
2022/03/05 10:47:48;;;;;;;10.10;8.57;;;5.80;99.90;;;;;;5038159;28;20738;-69
2022/03/05 10:50:28;;;;;;;14.77;8.37;;;6.00;99.90;;;;;;5039224;28;20554;-70
2022/03/05 10:53:00;;;;;;;12.17;9.13;;;6.10;99.90;;;;;;5039088;28;20428;-70
2022/03/05 10:55:29;;;;;;;13.97;8.10;;;6.30;99.90;;;;;;5038238;28;20436;-68
2022/03/05 10:57:58;;;;;;;18.47;11.73;;;6.50;99.90;;;;;;5038157;28;20467;-67
2022/03/05 11:00:24;;;;;;;13.00;9.43;;;6.70;99.90;;;;;;5038257;28;20822;-69
2022/03/05 11:02:51;;;;;;;10.63;7.33;;;6.70;99.90;;;;;;5038012;28;20462;-69
2022/03/05 11:05:19;;;;;;;10.27;8.13;;;6.70;99.90;;;;;;5036815;28;20476;-69
2022/03/05 11:07:48;;;;;;;10.07;6.70;;;6.80;99.90;;;;;;5039142;28;20455;-70
2022/03/05 11:10:18;;;;;;;10.67;7.17;;;6.80;99.90;;;;;;5037884;28;20464;-69
2022/03/05 11:12:52;;;;;;;9.40;7.50;;;6.80;99.90;;;;;;5037940;28;20478;-71
2022/03/05 11:15:19;;;;;;;10.37;7.07;;;6.70;99.90;;;;;;5038020;28;20436;-68
2022/03/05 11:17:47;;;;;;;14.83;7.63;;;6.60;99.90;;;;;;5037435;28;20467;-68
2022/03/05 11:20:14;;;;;;;8.40;7.33;;;6.50;99.90;;;;;;5037350;28;20491;-68
2022/03/05 11:22:44;;;;;;;9.40;6.87;;;6.50;99.90;;;;;;5037616;28;20467;-67
2022/03/05 11:25:15;;;;;;;10.43;8.07;;;6.40;99.90;;;;;;5037380;28;20486;-68
2022/03/05 11:27:52;;;;;;;10.33;7.80;;;6.30;99.90;;;;;;5038006;28;20931;-68
2022/03/05 11:30:19;;;;;;;8.57;7.30;;;6.30;99.90;;;;;;5037582;28;20455;-69
2022/03/05 11:32:46;;;;;;;10.20;7.33;;;6.20;99.90;;;;;;5037411;28;20550;-68
2022/03/05 11:35:24;;;;;;;11.37;8.20;;;6.30;99.90;;;;;;5037480;28;20491;-68
2022/03/05 11:37:51;;;;;;;10.93;7.07;;;6.40;99.90;;;;;;5037433;28;20471;-68
2022/03/05 11:40:35;;;;;;;10.13;8.10;;;6.50;99.90;;;;;;5037254;28;20471;-68
2022/03/05 11:43:19;;;;;;;9.07;6.57;;;6.70;99.90;;;;;;5036722;28;20484;-68
2022/03/05 11:45:49;;;;;;;6.97;6.27;;;6.90;99.90;;;;;;5037367;28;20846;-68
2022/03/05 11:48:27;;;;;;;12.20;7.70;;;7.20;99.90;;;;;;5037540;28;20469;-68
2022/03/05 11:50:56;;;;;;;9.00;6.50;;;7.50;99.90;;;;;;5038051;28;20441;-68
2022/03/05 11:53:23;;;;;;;7.63;6.70;;;7.50;99.90;;;;;;5037140;28;20460;-67
2022/03/05 11:55:51;;;;;;;11.80;6.97;;;7.50;99.90;;;;;;5037587;28;20467;-68
2022/03/05 11:58:27;;;;;;;10.33;7.10;;;7.70;99.90;;;;;;5035778;28;20920;-69
2022/03/05 12:00:56;;;;;;;9.57;6.80;;;7.90;99.90;;;;;;5036638;28;20447;-68
2022/03/05 12:03:39;;;;;;;9.87;7.00;;;8.00;99.90;;;;;;5036882;28;20460;-68
2022/03/05 12:06:08;;;;;;;8.13;6.80;;;8.10;99.90;;;;;;5034735;28;20535;-68
2022/03/05 12:08:56;;;;;;;6.33;5.60;;;8.20;99.90;;;;;;5040490;28;20482;-68
2022/03/05 12:11:24;;;;;;;7.33;5.80;;;8.30;99.90;;;;;;5036483;28;20522;-68
2022/03/05 12:13:54;;;;;;;6.77;5.60;;;8.30;99.90;;;;;;5038221;28;20464;-68
2022/03/05 12:16:23;;;;;;;7.63;5.50;;;8.80;99.90;;;;;;5037114;28;20475;-68
2022/03/05 12:18:51;;;;;;;6.47;5.40;;;9.90;99.90;;;;;;5036588;28;20460;-68
2022/03/05 12:21:24;;;;;;;7.40;5.50;;;11.00;99.90;;;;;;5036321;28;20459;-68
2022/03/05 12:23:51;;;;;;;6.97;5.37;;;11.70;99.90;;;;;;5036033;28;20455;-68
2022/03/05 12:26:21;;;;;;;5.50;4.60;;;12.50;99.90;;;;;;5035653;28;20487;-68
2022/03/05 12:28:49;;;;;;;4.87;4.47;;;13.10;97.90;;;;;;5036414;28;20849;-68
2022/03/05 12:31:19;;;;;;;4.87;4.20;;;13.80;90.40;;;;;;5036310;28;20463;-68
2022/03/05 12:33:47;;;;;;;7.30;4.40;;;14.80;82.00;;;;;;5036317;28;20822;-69
2022/03/05 12:36:15;;;;;;;9.03;4.73;;;15.00;72.20;;;;;;5036292;28;20460;-67
2022/03/05 12:38:43;;;;;;;7.30;5.10;;;14.20;68.30;;;;;;5035924;28;20459;-69
2022/03/05 12:41:10;;;;;;;9.67;7.53;;;13.30;67.10;;;;;;5035859;28;20475;-67
2022/03/05 12:43:42;;;;;;;10.70;5.70;;;12.00;71.20;;;;;;5035620;28;20499;-69
2022/03/05 12:46:10;;;;;;;5.37;4.63;;;11.30;75.40;;;;;;5035799;28;20794;-69
2022/03/05 12:48:36;;;;;;;5.70;5.20;;;10.40;76.80;;;;;;5035869;28;20456;-68
2022/03/05 12:51:05;;;;;;;8.27;5.50;;;9.60;82.50;;;;;;5035678;28;20456;-69